Archival Weather

Dallas-Fort Worth Intl

Dallas-Fort Worth, Texas (KDFW)

Report from: Thursday, September 21, 2023 7:53 AM CDT
Current time: Sunday, February 25, 2024 4:53 PM CST

Current weather – Weather history – Daily summaries
Weather forecast

Temperature25.0°C (77.0°F)
Dew point21.1°C (70.0°F)
Winds 7 kts (3.6 m/s, 8.1 mph) South-Southeast (150°)
Visibility10 mi. (16.1 km)
Clouds Few clouds 15,000 ft. (4,572 m)
Ceiling: Broken clouds 25,000 ft. (7,620 m)
Altimeter29.96 in.Hg (1015 mB)
Relative humidity79 %
Density altitude1,484 ft. (452 m)
Sea-level pressure101.4 kPa (1014 mB, 29.93 in.Hg)
Remarks Automated weather observing station with precipitation discriminator
Flight conditions Visual Meteorological Conditions
Raw dataKDFW 211253Z 15007KT 10SM FEW150 BKN250 25/21 A2996 RMK AO2 SLP136 T02500211
An error has occurred. This application may no longer respond until reloaded. Reload 🗙